Time;durP1;ratioP1;P1;durP2;ratioP2;P2;SDS_P1;SDS_P2;PMS_P1;PMS_P2;Temp;Humidity;BMP_temperature;BMP_pressure;BME280_temperature;BME280_humidity;BME280_pressure;Samples;Min_cycle;Max_cycle;Signal;HPM_P1;HPM_P2
2021/07/04 00:01:20;;;;;;;6.55;3.67;;;;;;;;;;5052118;28;20158;-48
2021/07/04 00:03:46;;;;;;;9.38;4.00;;;;;;;;;;5052482;28;20041;-48
2021/07/04 00:06:12;;;;;;;10.18;4.20;;;;;;;;;;5053665;28;20567;-48
2021/07/04 00:08:38;;;;;;;7.47;3.85;;;;;;;;;;5052653;28;20032;-48
2021/07/04 00:11:07;;;;;;;8.15;4.20;;;;;;;;;;5051904;28;20033;-48
2021/07/04 00:13:33;;;;;;;6.05;3.53;;;;;;;;;;5052646;28;20023;-48
2021/07/04 00:15:59;;;;;;;9.35;3.55;;;;;;;;;;5053705;28;20021;-48
2021/07/04 00:18:27;;;;;;;5.82;3.45;;;;;;;;;;5057395;28;20024;-48
2021/07/04 00:20:54;;;;;;;8.43;3.95;;;;;;;;;;5071669;28;20917;-48
2021/07/04 00:23:20;;;;;;;7.82;4.22;;;;;;;;;;5068496;28;20021;-48
2021/07/04 00:25:47;;;;;;;10.38;4.18;;;;;;;;;;5056382;28;20037;-48
2021/07/04 00:28:13;;;;;;;11.48;4.13;;;;;;;;;;5058005;28;20029;-48
2021/07/04 00:30:39;;;;;;;7.95;4.22;;;;;;;;;;5055916;28;20029;-48
2021/07/04 00:33:06;;;;;;;9.93;4.57;;;;;;;;;;5056376;28;20051;-49
2021/07/04 00:35:32;;;;;;;8.43;4.45;;;;;;;;;;5056430;28;20397;-48
2021/07/04 00:37:58;;;;;;;9.02;4.30;;;;;;;;;;5057252;28;20029;-48
2021/07/04 00:40:25;;;;;;;8.13;4.60;;;;;;;;;;5056105;28;20463;-48
2021/07/04 00:42:51;;;;;;;9.35;4.45;;;;;;;;;;5055662;28;20103;-49
2021/07/04 00:45:18;;;;;;;19.98;4.57;;;;;;;;;;5056395;28;20429;-48
2021/07/04 00:47:44;;;;;;;9.85;4.72;;;;;;;;;;5055948;28;20432;-49
2021/07/04 00:50:11;;;;;;;11.05;4.63;;;;;;;;;;5065958;28;20036;-49
2021/07/04 00:52:37;;;;;;;11.77;4.78;;;;;;;;;;5072794;28;21032;-49
2021/07/04 00:55:04;;;;;;;10.55;4.93;;;;;;;;;;5075583;28;20036;-49
2021/07/04 00:57:30;;;;;;;17.40;4.82;;;;;;;;;;5076351;28;20025;-48
2021/07/04 00:59:56;;;;;;;13.65;4.85;;;;;;;;;;5074702;28;20342;-48
2021/07/04 01:02:23;;;;;;;8.80;5.07;;;;;;;;;;5075215;28;20051;-48
2021/07/04 01:04:49;;;;;;;13.10;5.25;;;;;;;;;;5075544;28;20052;-48
2021/07/04 01:07:15;;;;;;;10.30;5.68;;;;;;;;;;5075181;28;20423;-49
2021/07/04 01:09:41;;;;;;;13.65;4.75;;;;;;;;;;5074320;28;20364;-48
2021/07/04 01:12:07;;;;;;;13.50;6.47;;;;;;;;;;5074595;28;20440;-48
2021/07/04 01:14:34;;;;;;;12.77;5.90;;;;;;;;;;5075420;28;20032;-48
2021/07/04 01:17:00;;;;;;;8.88;4.43;;;;;;;;;;5075751;28;20024;-48
2021/07/04 01:19:26;;;;;;;7.65;4.78;;;;;;;;;;5071613;28;20371;-48
2021/07/04 01:21:54;;;;;;;9.07;4.35;;;;;;;;;;5074393;28;20028;-48
2021/07/04 01:24:21;;;;;;;9.25;4.70;;;;;;;;;;5075591;28;20027;-49
2021/07/04 01:26:47;;;;;;;8.98;4.97;;;;;;;;;;5074712;28;20589;-48
2021/07/04 01:29:13;;;;;;;7.70;4.32;;;;;;;;;;5075794;28;20021;-49
2021/07/04 01:31:39;;;;;;;17.00;5.43;;;;;;;;;;5072960;28;20051;-48
2021/07/04 01:34:05;;;;;;;10.98;4.95;;;;;;;;;;5075371;28;20430;-48
2021/07/04 01:36:31;;;;;;;10.43;5.05;;;;;;;;;;5074498;28;20020;-48
2021/07/04 01:38:57;;;;;;;12.02;4.30;;;;;;;;;;5075114;28;20021;-49
2021/07/04 01:41:23;;;;;;;9.60;4.75;;;;;;;;;;5071228;28;20432;-48
2021/07/04 01:43:50;;;;;;;15.18;3.88;;;;;;;;;;5074850;28;20547;-49
2021/07/04 01:46:15;;;;;;;10.43;3.85;;;;;;;;;;5059542;28;20052;-49
2021/07/04 01:48:41;;;;;;;9.13;4.80;;;;;;;;;;5055490;28;20025;-48
2021/07/04 01:51:08;;;;;;;11.93;4.35;;;;;;;;;;5069627;28;20029;-48
2021/07/04 01:53:35;;;;;;;7.43;4.13;;;;;;;;;;5055409;28;20021;-49
2021/07/04 01:56:04;;;;;;;6.50;4.03;;;;;;;;;;5054942;28;20071;-48
2021/07/04 01:58:30;;;;;;;7.03;3.67;;;;;;;;;;5055373;28;20040;-48
2021/07/04 02:00:56;;;;;;;9.20;3.85;;;;;;;;;;5055125;28;20036;-48
2021/07/04 02:03:22;;;;;;;8.68;3.33;;;;;;;;;;5074121;28;20017;-48
2021/07/04 02:05:48;;;;;;;7.28;4.55;;;;;;;;;;5074586;28;20028;-49
2021/07/04 02:08:14;;;;;;;10.13;3.92;;;;;;;;;;5074719;28;20082;-48
2021/07/04 02:10:40;;;;;;;6.57;3.47;;;;;;;;;;5074228;28;20024;-48
2021/07/04 02:13:07;;;;;;;5.18;3.58;;;;;;;;;;5072792;28;20115;-48
2021/07/04 02:15:35;;;;;;;6.13;3.20;;;;;;;;;;5074843;28;20078;-48
2021/07/04 02:18:05;;;;;;;9.23;3.42;;;;;;;;;;5074035;28;20060;-48
2021/07/04 02:20:31;;;;;;;8.15;3.78;;;;;;;;;;5073319;28;20036;-48
2021/07/04 02:22:57;;;;;;;8.13;3.35;;;;;;;;;;5072667;28;20111;-48
2021/07/04 02:25:23;;;;;;;7.43;3.72;;;;;;;;;;5074317;28;20036;-48
2021/07/04 02:27:49;;;;;;;5.75;3.33;;;;;;;;;;5073743;28;20028;-48
2021/07/04 02:30:15;;;;;;;5.30;3.30;;;;;;;;;;5074263;28;20032;-49
2021/07/04 02:32:44;;;;;;;22.58;4.47;;;;;;;;;;5072809;28;20059;-48
2021/07/04 02:35:10;;;;;;;7.88;4.18;;;;;;;;;;5068433;28;20111;-49
2021/07/04 02:37:36;;;;;;;7.18;3.30;;;;;;;;;;5074215;28;20020;-49
2021/07/04 02:40:03;;;;;;;8.00;3.80;;;;;;;;;;5068457;28;20369;-49
2021/07/04 02:42:29;;;;;;;19.70;3.38;;;;;;;;;;5053299;28;20021;-48
2021/07/04 02:44:55;;;;;;;6.90;2.97;;;;;;;;;;5054929;28;20044;-48
2021/07/04 02:47:21;;;;;;;16.20;3.25;;;;;;;;;;5052879;28;20284;-48
2021/07/04 02:49:47;;;;;;;9.00;2.97;;;;;;;;;;5059647;28;20129;-48
2021/07/04 02:52:13;;;;;;;10.82;3.53;;;;;;;;;;5073005;28;20038;-48
2021/07/04 02:54:39;;;;;;;7.95;3.35;;;;;;;;;;5063842;28;20029;-49
2021/07/04 02:57:05;;;;;;;21.02;4.15;;;;;;;;;;5053684;28;20464;-49
2021/07/04 02:59:34;;;;;;;9.63;2.72;;;;;;;;;;5053917;28;20108;-48
2021/07/04 03:02:00;;;;;;;11.23;3.15;;;;;;;;;;5052629;28;20067;-49
2021/07/04 03:04:26;;;;;;;10.95;3.60;;;;;;;;;;5054870;28;20028;-48
2021/07/04 03:06:54;;;;;;;7.63;2.83;;;;;;;;;;5053786;28;20032;-49
2021/07/04 03:09:21;;;;;;;14.13;3.60;;;;;;;;;;5068930;28;20028;-48
2021/07/04 03:11:47;;;;;;;18.90;3.70;;;;;;;;;;5073195;28;20028;-48
2021/07/04 03:14:13;;;;;;;17.83;4.15;;;;;;;;;;5073115;28;20020;-48
2021/07/04 03:16:39;;;;;;;14.35;4.15;;;;;;;;;;5058396;28;20108;-49
2021/07/04 03:19:05;;;;;;;10.25;3.67;;;;;;;;;;5053222;28;20029;-49
2021/07/04 03:21:30;;;;;;;6.85;3.28;;;;;;;;;;5052542;28;20405;-48
2021/07/04 03:23:56;;;;;;;13.75;3.83;;;;;;;;;;5053362;28;20099;-49
2021/07/04 03:26:22;;;;;;;19.70;4.53;;;;;;;;;;5053737;28;20029;-48
2021/07/04 03:28:48;;;;;;;10.40;4.50;;;;;;;;;;5069491;28;20056;-48
2021/07/04 03:31:14;;;;;;;38.03;5.47;;;;;;;;;;5070374;28;20024;-48
2021/07/04 03:33:40;;;;;;;90.78;6.55;;;;;;;;;;5072968;28;20031;-48
2021/07/04 03:36:06;;;;;;;27.70;4.63;;;;;;;;;;5072280;28;20024;-48
2021/07/04 03:38:33;;;;;;;9.98;4.07;;;;;;;;;;5053474;28;20036;-48
2021/07/04 03:40:59;;;;;;;19.65;5.43;;;;;;;;;;5052498;28;20032;-48
2021/07/04 03:43:25;;;;;;;8.18;4.28;;;;;;;;;;5058693;28;20028;-49
2021/07/04 03:45:52;;;;;;;9.32;4.38;;;;;;;;;;5072900;28;20037;-49
2021/07/04 03:48:18;;;;;;;55.90;5.72;;;;;;;;;;5071480;28;20036;-49
2021/07/04 03:50:44;;;;;;;65.88;7.63;;;;;;;;;;5072229;28;20097;-48
2021/07/04 03:53:10;;;;;;;144.95;10.50;;;;;;;;;;5054929;28;20111;-48
2021/07/04 03:55:36;;;;;;;15.75;4.22;;;;;;;;;;5052589;28;20116;-49
2021/07/04 03:58:03;;;;;;;71.40;6.43;;;;;;;;;;5054158;28;20021;-48
2021/07/04 04:00:28;;;;;;;49.40;4.90;;;;;;;;;;5052351;28;20052;-48
2021/07/04 04:02:54;;;;;;;26.48;5.28;;;;;;;;;;5052179;28;20083;-48
2021/07/04 04:05:20;;;;;;;31.67;4.88;;;;;;;;;;5052779;28;20278;-48
2021/07/04 04:07:47;;;;;;;19.08;5.97;;;;;;;;;;5053070;28;20021;-49
2021/07/04 04:10:13;;;;;;;8.77;4.78;;;;;;;;;;5053479;28;20044;-48
2021/07/04 04:12:39;;;;;;;17.75;4.50;;;;;;;;;;5052143;28;20090;-48
2021/07/04 04:15:06;;;;;;;51.70;5.00;;;;;;;;;;5052363;28;20020;-49
2021/07/04 04:17:32;;;;;;;25.13;4.68;;;;;;;;;;5052809;28;20111;-49
2021/07/04 04:19:58;;;;;;;62.65;5.47;;;;;;;;;;5053536;28;20108;-48
2021/07/04 04:22:24;;;;;;;34.63;4.88;;;;;;;;;;5051877;28;20490;-48
2021/07/04 04:24:51;;;;;;;7.53;3.70;;;;;;;;;;5051731;28;20119;-49
2021/07/04 04:27:17;;;;;;;17.08;4.53;;;;;;;;;;5052712;28;20050;-48
2021/07/04 04:29:43;;;;;;;16.10;4.82;;;;;;;;;;5053410;28;20174;-48
2021/07/04 04:32:09;;;;;;;16.48;4.45;;;;;;;;;;5051861;28;20021;-48
2021/07/04 04:34:35;;;;;;;10.00;4.40;;;;;;;;;;5052317;28;20028;-48
2021/07/04 04:37:01;;;;;;;6.32;3.97;;;;;;;;;;5057122;28;20027;-48
2021/07/04 04:39:27;;;;;;;7.70;3.70;;;;;;;;;;5072263;28;20025;-49
2021/07/04 04:41:53;;;;;;;6.90;3.97;;;;;;;;;;5069816;28;20028;-48
2021/07/04 04:44:19;;;;;;;9.60;3.97;;;;;;;;;;5072294;28;20341;-48
2021/07/04 04:46:45;;;;;;;6.72;3.78;;;;;;;;;;5072137;28;20032;-49
2021/07/04 04:49:11;;;;;;;17.50;3.88;;;;;;;;;;5072745;28;20016;-48
2021/07/04 04:51:37;;;;;;;27.60;5.32;;;;;;;;;;5064065;28;20025;-49
2021/07/04 04:54:04;;;;;;;7.47;4.15;;;;;;;;;;5051887;28;20445;-48
2021/07/04 04:56:30;;;;;;;28.33;5.13;;;;;;;;;;5052125;28;20075;-48
2021/07/04 04:58:56;;;;;;;13.65;4.05;;;;;;;;;;5052436;28;20037;-48
2021/07/04 05:01:26;;;;;;;8.43;3.92;;;;;;;;;;5052583;28;20020;-48
2021/07/04 05:03:52;;;;;;;8.35;3.80;;;;;;;;;;5052454;28;20041;-48
2021/07/04 05:06:18;;;;;;;12.30;5.40;;;;;;;;;;5067814;28;20513;-48
2021/07/04 05:08:44;;;;;;;5.95;3.90;;;;;;;;;;5071409;28;20025;-48
2021/07/04 05:11:11;;;;;;;8.45;4.30;;;;;;;;;;5072470;28;20351;-48
2021/07/04 05:13:37;;;;;;;9.63;4.30;;;;;;;;;;5074542;28;20032;-48
2021/07/04 05:16:04;;;;;;;6.72;4.70;;;;;;;;;;5074970;28;20048;-49
2021/07/04 05:18:30;;;;;;;8.85;4.38;;;;;;;;;;5075721;28;20058;-48
2021/07/04 05:20:56;;;;;;;7.68;4.75;;;;;;;;;;5074545;28;20402;-48
2021/07/04 05:23:22;;;;;;;17.17;5.30;;;;;;;;;;5073913;28;20032;-49
2021/07/04 05:25:49;;;;;;;9.45;4.50;;;;;;;;;;5075419;28;20111;-48
2021/07/04 05:28:16;;;;;;;9.63;4.78;;;;;;;;;;5075020;28;20444;-48
2021/07/04 05:30:41;;;;;;;16.17;5.20;;;;;;;;;;5074017;28;20060;-48
2021/07/04 05:33:07;;;;;;;7.07;4.38;;;;;;;;;;5063745;28;20052;-48
2021/07/04 05:35:33;;;;;;;13.93;5.20;;;;;;;;;;5056278;28;20164;-48
2021/07/04 05:37:59;;;;;;;8.15;3.67;;;;;;;;;;5055233;28;20032;-48
2021/07/04 05:40:25;;;;;;;11.10;4.15;;;;;;;;;;5055245;28;20045;-49
2021/07/04 05:42:53;;;;;;;10.15;4.32;;;;;;;;;;5054994;28;20025;-48
2021/07/04 05:45:23;;;;;;;6.38;3.40;;;;;;;;;;5065415;28;20071;-48
2021/07/04 05:47:49;;;;;;;6.72;3.92;;;;;;;;;;5074651;28;20035;-48
2021/07/04 05:50:15;;;;;;;8.27;3.75;;;;;;;;;;5074695;28;20036;-49
2021/07/04 05:52:41;;;;;;;6.30;4.13;;;;;;;;;;5074628;28;20029;-48
2021/07/04 05:55:08;;;;;;;8.02;3.92;;;;;;;;;;5071359;28;20396;-48
2021/07/04 05:57:34;;;;;;;8.65;3.90;;;;;;;;;;5055246;28;20025;-48
2021/07/04 06:00:00;;;;;;;8.13;4.32;;;;;;;;;;5057144;28;20048;-48
2021/07/04 06:02:26;;;;;;;7.63;3.88;;;;;;;;;;5074189;28;20079;-49
2021/07/04 06:04:51;;;;;;;5.38;3.63;;;;;;;;;;5074793;28;20020;-48
2021/07/04 06:07:17;;;;;;;13.27;4.95;;;;;;;;;;5072901;28;20055;-48
2021/07/04 06:09:44;;;;;;;19.23;4.38;;;;;;;;;;5074733;28;20036;-49
2021/07/04 06:12:10;;;;;;;18.13;3.88;;;;;;;;;;5074033;28;20028;-49
2021/07/04 06:14:37;;;;;;;33.88;4.57;;;;;;;;;;5074836;28;20039;-49
2021/07/04 06:17:03;;;;;;;31.05;4.35;;;;;;;;;;5072753;28;20407;-49
2021/07/04 06:19:29;;;;;;;7.43;3.92;;;;;;;;;;5067451;28;20024;-49
2021/07/04 06:21:55;;;;;;;7.15;3.15;;;;;;;;;;5062816;28;20150;-49
2021/07/04 06:24:21;;;;;;;15.00;5.22;;;;;;;;;;5074090;28;20107;-49
2021/07/04 06:26:48;;;;;;;9.48;4.03;;;;;;;;;;5072469;28;20136;-49
2021/07/04 06:29:14;;;;;;;8.85;4.22;;;;;;;;;;5074215;28;20388;-49
2021/07/04 06:31:41;;;;;;;9.68;5.05;;;;;;;;;;5073776;28;20028;-50
2021/07/04 06:34:07;;;;;;;25.48;4.75;;;;;;;;;;5073534;28;20020;-49
2021/07/04 06:36:33;;;;;;;10.13;4.05;;;;;;;;;;5074359;28;20090;-49
2021/07/04 06:38:59;;;;;;;7.55;3.15;;;;;;;;;;5060938;28;20032;-49
2021/07/04 06:41:25;;;;;;;37.03;4.72;;;;;;;;;;5053309;28;20463;-49
2021/07/04 06:43:51;;;;;;;54.20;4.70;;;;;;;;;;5053967;28;20021;-49
2021/07/04 06:46:17;;;;;;;11.40;3.70;;;;;;;;;;5054221;28;20036;-49
2021/07/04 06:48:43;;;;;;;11.73;4.40;;;;;;;;;;5054506;28;20078;-48
2021/07/04 06:51:09;;;;;;;12.00;3.47;;;;;;;;;;5070439;28;20396;-49
2021/07/04 06:53:36;;;;;;;9.63;4.15;;;;;;;;;;5071867;28;20119;-49
2021/07/04 06:56:03;;;;;;;4.65;3.33;;;;;;;;;;5073852;28;20444;-49
2021/07/04 06:58:29;;;;;;;6.45;3.47;;;;;;;;;;5073543;28;20025;-49
2021/07/04 07:00:55;;;;;;;5.28;3.92;;;;;;;;;;5063294;28;20033;-49
2021/07/04 07:03:21;;;;;;;5.50;3.33;;;;;;;;;;5052182;28;20025;-49
2021/07/04 07:05:47;;;;;;;9.43;3.47;;;;;;;;;;5061579;28;20072;-49
2021/07/04 07:08:13;;;;;;;6.60;3.65;;;;;;;;;;5070895;28;20497;-49
2021/07/04 07:10:39;;;;;;;23.13;5.40;;;;;;;;;;5068798;28;20036;-50
2021/07/04 07:13:05;;;;;;;5.72;3.35;;;;;;;;;;5070438;28;20023;-49
2021/07/04 07:15:32;;;;;;;9.15;4.10;;;;;;;;;;5070955;28;20440;-49
2021/07/04 07:17:58;;;;;;;5.88;3.25;;;;;;;;;;5071301;28;20111;-49
2021/07/04 07:20:24;;;;;;;6.30;4.00;;;;;;;;;;5053212;28;20025;-49
2021/07/04 07:22:51;;;;;;;5.82;3.97;;;;;;;;;;5051760;28;20112;-50
2021/07/04 07:25:17;;;;;;;7.70;3.60;;;;;;;;;;5053210;28;20079;-49
2021/07/04 07:27:43;;;;;;;5.78;3.28;;;;;;;;;;5053273;28;20031;-48
2021/07/04 07:30:10;;;;;;;6.72;3.38;;;;;;;;;;5060119;28;20064;-49
2021/07/04 07:32:37;;;;;;;10.05;4.47;;;;;;;;;;5070244;28;20094;-49
2021/07/04 07:35:04;;;;;;;4.35;3.08;;;;;;;;;;5072379;28;20367;-49
2021/07/04 07:37:30;;;;;;;9.23;5.38;;;;;;;;;;5073118;28;20027;-49
2021/07/04 07:39:56;;;;;;;13.57;5.82;;;;;;;;;;5072876;28;20028;-49
2021/07/04 07:42:22;;;;;;;9.05;5.28;;;;;;;;;;5068405;28;20025;-49
2021/07/04 07:44:48;;;;;;;9.27;5.72;;;;;;;;;;5072711;28;20120;-49
2021/07/04 07:47:14;;;;;;;13.68;7.15;;;;;;;;;;5072763;28;20104;-49
2021/07/04 07:49:41;;;;;;;10.93;5.57;;;;;;;;;;5073120;28;20020;-49
2021/07/04 07:52:07;;;;;;;10.93;5.80;;;;;;;;;;5060647;28;20025;-49
2021/07/04 07:54:33;;;;;;;9.07;5.68;;;;;;;;;;5052694;28;20029;-49
2021/07/04 07:57:02;;;;;;;10.82;5.70;;;;;;;;;;5052779;28;20032;-49
2021/07/04 07:59:29;;;;;;;21.25;5.60;;;;;;;;;;5052989;28;20444;-49
2021/07/04 08:01:55;;;;;;;9.68;5.55;;;;;;;;;;5051902;28;20429;-49
2021/07/04 08:04:21;;;;;;;6.38;4.38;;;;;;;;;;5053807;28;20036;-49
2021/07/04 08:06:47;;;;;;;10.20;5.43;;;;;;;;;;5052306;28;20091;-49
2021/07/04 08:09:13;;;;;;;15.85;6.35;;;;;;;;;;5057208;28;20025;-49
2021/07/04 08:11:39;;;;;;;11.55;4.30;;;;;;;;;;5063409;28;20057;-49
2021/07/04 08:14:05;;;;;;;7.60;4.72;;;;;;;;;;5070840;28;20017;-52
2021/07/04 08:16:31;;;;;;;14.50;5.20;;;;;;;;;;5072899;28;20103;-49
2021/07/04 08:18:57;;;;;;;10.25;4.70;;;;;;;;;;5071930;28;20036;-50
2021/07/04 08:21:24;;;;;;;14.93;5.93;;;;;;;;;;5071836;28;20028;-49
2021/07/04 08:23:50;;;;;;;11.63;6.43;;;;;;;;;;5072585;28;20033;-49
2021/07/04 08:26:17;;;;;;;10.43;6.30;;;;;;;;;;5071035;28;20040;-49
2021/07/04 08:28:43;;;;;;;9.02;6.50;;;;;;;;;;5065040;28;20029;-50
2021/07/04 08:31:09;;;;;;;17.25;6.47;;;;;;;;;;5062023;28;20090;-49
2021/07/04 08:33:35;;;;;;;12.07;5.45;;;;;;;;;;5052564;28;20511;-49
2021/07/04 08:36:01;;;;;;;26.48;5.50;;;;;;;;;;5053581;28;20036;-49
2021/07/04 08:38:27;;;;;;;9.48;4.57;;;;;;;;;;5051977;28;20365;-49
2021/07/04 08:40:53;;;;;;;10.02;4.43;;;;;;;;;;5051618;28;20330;-49
2021/07/04 08:43:29;;;;;;;7.07;4.20;;;;;;;;;;5069441;28;20017;-49
2021/07/04 08:45:56;;;;;;;8.07;3.53;;;;;;;;;;5071205;28;20345;-49
2021/07/04 08:48:22;;;;;;;5.88;3.47;;;;;;;;;;5076433;28;20031;-49
2021/07/04 08:50:48;;;;;;;14.68;4.60;;;;;;;;;;5074385;28;20024;-49
2021/07/04 08:53:14;;;;;;;5.10;3.75;;;;;;;;;;5076111;28;20016;-49
2021/07/04 08:55:43;;;;;;;4.95;2.78;;;;;;;;;;5075802;28;20040;-49
2021/07/04 08:58:08;;;;;;;7.28;3.42;;;;;;;;;;5058063;28;20032;-49
2021/07/04 09:00:35;;;;;;;4.53;2.97;;;;;;;;;;5055182;28;20032;-49
2021/07/04 09:03:01;;;;;;;7.53;3.30;;;;;;;;;;5056470;28;20021;-49
2021/07/04 09:05:27;;;;;;;4.60;2.78;;;;;;;;;;5055074;28;20160;-49
2021/07/04 09:07:53;;;;;;;3.95;2.35;;;;;;;;;;5057127;28;20132;-49
2021/07/04 09:10:20;;;;;;;6.20;2.88;;;;;;;;;;5055930;28;20147;-49
2021/07/04 09:12:48;;;;;;;6.28;2.63;;;;;;;;;;5067408;28;20064;-49
2021/07/04 09:15:17;;;;;;;24.15;3.90;;;;;;;;;;5074966;28;20029;-49
2021/07/04 09:17:45;;;;;;;43.55;4.97;;;;;;;;;;5075338;28;20044;-49
2021/07/04 09:20:12;;;;;;;14.88;3.20;;;;;;;;;;5075724;28;20475;-49
2021/07/04 09:22:40;;;;;;;18.38;3.33;;;;;;;;;;5073420;28;20021;-49
2021/07/04 09:25:13;;;;;;;3.08;2.60;;;;;;;;;;5075065;28;20062;-49
2021/07/04 09:27:40;;;;;;;4.80;3.20;;;;;;;;;;5070654;28;20041;-49
2021/07/04 09:30:10;;;;;;;7.18;3.50;;;;;;;;;;5067964;28;20068;-50
2021/07/04 09:32:36;;;;;;;6.97;3.08;;;;;;;;;;5055862;28;20112;-49
2021/07/04 09:35:05;;;;;;;8.80;3.92;;;;;;;;;;5054776;28;20117;-49
2021/07/04 09:37:31;;;;;;;8.20;2.75;;;;;;;;;;5055335;28;20031;-49
2021/07/04 09:40:12;;;;;;;8.77;3.10;;;;;;;;;;5060400;28;20135;-49
2021/07/04 09:42:57;;;;;;;6.65;3.33;;;;;;;;;;5074388;28;20444;-49
2021/07/04 09:45:24;;;;;;;8.70;3.45;;;;;;;;;;5073901;28;20471;-49
2021/07/04 09:47:51;;;;;;;10.20;3.17;;;;;;;;;;5073699;28;20316;-51
2021/07/04 09:50:17;;;;;;;9.27;3.38;;;;;;;;;;5075210;28;20116;-49
2021/07/04 09:52:55;;;;;;;8.45;3.65;;;;;;;;;;5073825;28;20027;-49
2021/07/04 09:55:21;;;;;;;5.47;2.70;;;;;;;;;;5060489;28;20387;-49
2021/07/04 09:57:57;;;;;;;6.68;3.42;;;;;;;;;;5054138;28;20024;-49
2021/07/04 10:00:24;;;;;;;7.60;3.58;;;;;;;;;;5053809;28;20368;-49
2021/07/04 10:03:17;;;;;;;5.78;2.38;;;;;;;;;;5054082;28;20025;-49
2021/07/04 10:05:44;;;;;;;4.60;3.15;;;;;;;;;;5053172;28;20059;-49
2021/07/04 10:08:17;;;;;;;4.60;2.88;;;;;;;;;;5061631;28;20108;-49
2021/07/04 10:10:43;;;;;;;4.60;2.75;;;;;;;;;;5073680;28;20032;-49
2021/07/04 10:13:09;;;;;;;5.45;2.83;;;;;;;;;;5074567;28;20352;-49
2021/07/04 10:15:36;;;;;;;3.25;2.15;;;;;;;;;;5073026;28;20035;-49
2021/07/04 10:18:03;;;;;;;3.92;2.42;;;;;;;;;;5074011;28;20027;-49
2021/07/04 10:20:29;;;;;;;3.92;2.20;;;;;;;;;;5074164;28;20451;-49
2021/07/04 10:22:56;;;;;;;4.80;2.47;;;;;;;;;;5060476;28;20036;-49
2021/07/04 10:25:22;;;;;;;3.03;2.20;;;;;;;;;;5053966;28;20762;-49
2021/07/04 10:27:49;;;;;;;5.10;2.42;;;;;;;;;;5055026;28;20065;-49
2021/07/04 10:30:15;;;;;;;3.15;2.30;;;;;;;;;;5054751;28;20021;-49
2021/07/04 10:33:00;;;;;;;4.78;2.60;;;;;;;;;;5053937;28;20021;-49
2021/07/04 10:35:26;;;;;;;3.72;2.38;;;;;;;;;;5066320;28;20025;-49
2021/07/04 10:37:52;;;;;;;3.40;2.17;;;;;;;;;;5071608;28;20454;-49
2021/07/04 10:40:19;;;;;;;3.30;2.53;;;;;;;;;;5074425;28;20021;-49
2021/07/04 10:42:45;;;;;;;3.20;1.95;;;;;;;;;;5073381;28;20033;-49
2021/07/04 10:45:30;;;;;;;7.57;2.72;;;;;;;;;;5074211;28;20032;-50
2021/07/04 10:47:58;;;;;;;4.20;2.72;;;;;;;;;;5069049;28;20047;-49
2021/07/04 10:50:24;;;;;;;9.43;3.05;;;;;;;;;;5065084;28;20028;-49
2021/07/04 10:52:53;;;;;;;5.30;2.88;;;;;;;;;;5071839;28;20020;-50
2021/07/04 10:55:39;;;;;;;16.13;2.70;;;;;;;;;;5073565;28;20593;-50
2021/07/04 10:58:05;;;;;;;5.75;2.40;;;;;;;;;;5072475;28;20440;-50
2021/07/04 11:00:35;;;;;;;16.00;2.50;;;;;;;;;;5066004;28;20448;-49
2021/07/04 11:03:02;;;;;;;10.50;3.33;;;;;;;;;;5057619;28;20029;-49
2021/07/04 11:05:39;;;;;;;106.43;5.18;;;;;;;;;;5053957;28;20037;-49
2021/07/04 11:08:05;;;;;;;12.35;2.75;;;;;;;;;;5054107;28;20025;-49
2021/07/04 11:10:39;;;;;;;13.02;1.95;;;;;;;;;;5052725;28;20035;-49
2021/07/04 11:13:09;;;;;;;3.15;2.25;;;;;;;;;;5053540;28;20029;-49
2021/07/04 11:15:38;;;;;;;9.80;3.42;;;;;;;;;;5067269;28;20021;-49
2021/07/04 11:18:05;;;;;;;3.63;2.60;;;;;;;;;;5073552;28;20028;-49
2021/07/04 11:20:51;;;;;;;85.93;5.53;;;;;;;;;;5071357;28;20591;-49
2021/07/04 11:23:22;;;;;;;24.88;3.40;;;;;;;;;;5072932;28;20039;-49
2021/07/04 11:25:51;;;;;;;8.65;3.28;;;;;;;;;;5072955;28;20040;-49
2021/07/04 11:28:20;;;;;;;6.97;3.15;;;;;;;;;;5073669;28;20086;-49
2021/07/04 11:30:47;;;;;;;3.92;2.38;;;;;;;;;;5070764;28;20064;-49
2021/07/04 11:33:24;;;;;;;5.32;2.53;;;;;;;;;;5072549;28;20025;-49
2021/07/04 11:35:51;;;;;;;3.85;2.83;;;;;;;;;;5073094;28;20028;-49
2021/07/04 11:38:17;;;;;;;13.25;2.97;;;;;;;;;;5072849;28;20033;-49
2021/07/04 11:40:44;;;;;;;37.42;3.63;;;;;;;;;;5070669;28;20028;-49
2021/07/04 11:43:18;;;;;;;11.00;2.55;;;;;;;;;;5072886;28;20346;-49
2021/07/04 11:45:53;;;;;;;4.45;2.72;;;;;;;;;;5073194;28;20033;-49
2021/07/04 11:48:19;;;;;;;5.30;2.55;;;;;;;;;;5072953;28;20115;-49
2021/07/04 11:50:55;;;;;;;4.90;3.15;;;;;;;;;;5066266;28;20021;-49
2021/07/04 11:53:21;;;;;;;86.03;4.70;;;;;;;;;;5055993;28;20029;-51
2021/07/04 11:56:00;;;;;;;43.22;4.13;;;;;;;;;;5062798;28;20427;-49
2021/07/04 11:58:27;;;;;;;22.33;3.15;;;;;;;;;;5072659;28;20036;-49
2021/07/04 12:00:53;;;;;;;4.50;2.67;;;;;;;;;;5070308;28;20028;-49
2021/07/04 12:03:21;;;;;;;5.18;2.92;;;;;;;;;;5071962;28;20039;-49
2021/07/04 12:05:47;;;;;;;12.07;3.10;;;;;;;;;;5072318;28;20059;-49
2021/07/04 12:08:13;;;;;;;4.00;2.78;;;;;;;;;;5071474;28;20440;-49
2021/07/04 12:10:52;;;;;;;7.18;3.15;;;;;;;;;;5070962;28;20032;-49
2021/07/04 12:13:18;;;;;;;9.52;2.83;;;;;;;;;;5071430;28;20075;-50
2021/07/04 12:15:49;;;;;;;19.60;3.33;;;;;;;;;;5071754;28;20028;-49
2021/07/04 12:18:15;;;;;;;5.35;3.38;;;;;;;;;;5072330;28;20478;-49
2021/07/04 12:20:42;;;;;;;12.50;2.80;;;;;;;;;;5073446;28;20121;-49
2021/07/04 12:23:12;;;;;;;4.10;2.28;;;;;;;;;;5074508;28;20132;-49
2021/07/04 12:25:42;;;;;;;4.47;2.83;;;;;;;;;;5076223;28;20043;-49
2021/07/04 12:28:09;;;;;;;6.18;3.38;;;;;;;;;;5076358;28;20055;-49
2021/07/04 12:30:35;;;;;;;4.28;2.55;;;;;;;;;;5076966;28;20024;-49
2021/07/04 12:33:05;;;;;;;7.95;2.90;;;;;;;;;;5075574;28;20359;-49
2021/07/04 12:35:38;;;;;;;5.13;2.97;;;;;;;;;;5076938;28;20082;-49
2021/07/04 12:38:07;;;;;;;4.20;2.95;;;;;;;;;;5077450;28;20028;-49
2021/07/04 12:40:34;;;;;;;3.60;2.42;;;;;;;;;;5073441;28;20037;-49
2021/07/04 12:43:07;;;;;;;6.22;2.58;;;;;;;;;;5056793;28;20040;-49
2021/07/04 12:45:33;;;;;;;5.45;2.97;;;;;;;;;;5057816;28;20041;-49
2021/07/04 12:48:07;;;;;;;3.53;2.33;;;;;;;;;;5067473;28;20021;-49
2021/07/04 12:50:40;;;;;;;3.63;2.17;;;;;;;;;;5067652;28;20043;-50
2021/07/04 12:53:07;;;;;;;3.92;3.05;;;;;;;;;;5074849;28;20020;-49
2021/07/04 12:55:36;;;;;;;3.67;2.72;;;;;;;;;;5073284;28;20467;-49
2021/07/04 12:58:22;;;;;;;8.15;3.28;;;;;;;;;;5076550;28;20104;-49
2021/07/04 13:00:48;;;;;;;3.65;2.45;;;;;;;;;;5075095;28;20025;-49
2021/07/04 13:03:34;;;;;;;4.05;2.55;;;;;;;;;;5075718;28;20029;-49
2021/07/04 13:06:00;;;;;;;3.88;2.85;;;;;;;;;;5064804;28;20044;-49
2021/07/04 13:08:26;;;;;;;4.35;2.65;;;;;;;;;;5055790;28;20035;-49
2021/07/04 13:10:52;;;;;;;4.88;2.90;;;;;;;;;;5054707;28;20039;-49
2021/07/04 13:13:18;;;;;;;4.90;2.63;;;;;;;;;;5069666;28;20490;-49
2021/07/04 13:15:43;;;;;;;7.05;2.80;;;;;;;;;;5072020;28;20056;-49
2021/07/04 13:18:24;;;;;;;10.88;2.90;;;;;;;;;;5055508;28;20444;-49
2021/07/04 13:20:50;;;;;;;4.88;3.03;;;;;;;;;;5054834;28;20471;-48
2021/07/04 13:23:17;;;;;;;21.55;3.17;;;;;;;;;;5055653;28;20052;-49
2021/07/04 13:25:45;;;;;;;8.15;2.67;;;;;;;;;;5056163;28;20483;-49
2021/07/04 13:28:13;;;;;;;19.30;3.33;;;;;;;;;;5054146;28;20502;-49
2021/07/04 13:30:44;;;;;;;8.10;3.28;;;;;;;;;;5054365;28;20040;-49
2021/07/04 13:33:10;;;;;;;12.18;3.95;;;;;;;;;;5054676;28;20463;-49
2021/07/04 13:35:36;;;;;;;5.70;3.10;;;;;;;;;;5055526;28;20032;-49
2021/07/04 13:38:03;;;;;;;7.03;2.92;;;;;;;;;;5056209;28;20036;-49
2021/07/04 13:40:30;;;;;;;9.68;3.53;;;;;;;;;;5055174;28;20025;-49
2021/07/04 13:42:56;;;;;;;21.77;4.60;;;;;;;;;;5052843;28;20051;-49
2021/07/04 13:45:30;;;;;;;80.70;6.65;;;;;;;;;;5068742;28;20487;-49
2021/07/04 13:48:01;;;;;;;5.78;3.50;;;;;;;;;;5072265;28;20056;-49
2021/07/04 13:50:28;;;;;;;7.10;4.47;;;;;;;;;;5075148;28;20078;-49
2021/07/04 13:52:54;;;;;;;9.43;4.45;;;;;;;;;;5074809;28;20024;-49
2021/07/04 13:55:20;;;;;;;10.75;4.50;;;;;;;;;;5074390;28;20043;-49
2021/07/04 13:57:46;;;;;;;4.22;2.97;;;;;;;;;;5063603;28;20028;-49
2021/07/04 14:00:12;;;;;;;6.63;3.25;;;;;;;;;;5063558;28;20340;-49
2021/07/04 14:02:38;;;;;;;10.85;3.38;;;;;;;;;;5062955;28;20016;-49
2021/07/04 14:05:05;;;;;;;8.05;3.20;;;;;;;;;;5065336;28;20025;-49
2021/07/04 14:07:31;;;;;;;4.50;2.75;;;;;;;;;;5064866;28;20028;-49
2021/07/04 14:09:57;;;;;;;4.93;2.72;;;;;;;;;;5065320;28;20036;-49
2021/07/04 14:12:23;;;;;;;13.90;2.95;;;;;;;;;;5063060;28;20094;-49
2021/07/04 14:14:49;;;;;;;9.38;2.75;;;;;;;;;;5071224;28;20440;-49
2021/07/04 14:17:15;;;;;;;4.28;2.13;;;;;;;;;;5074809;28;20021;-49
2021/07/04 14:19:45;;;;;;;21.30;3.55;;;;;;;;;;5072833;28;20363;-49
2021/07/04 14:22:11;;;;;;;13.20;2.65;;;;;;;;;;5073197;28;20068;-49
2021/07/04 14:24:37;;;;;;;8.57;2.33;;;;;;;;;;5063095;28;20053;-49
2021/07/04 14:27:04;;;;;;;13.57;2.35;;;;;;;;;;5064283;28;20033;-49
2021/07/04 14:29:30;;;;;;;2.67;1.77;;;;;;;;;;5063989;28;20146;-49
2021/07/04 14:31:56;;;;;;;21.23;2.20;;;;;;;;;;5064742;28;20035;-49
2021/07/04 14:34:22;;;;;;;2.72;1.40;;;;;;;;;;5063179;28;20162;-49
2021/07/04 14:36:48;;;;;;;1.60;1.10;;;;;;;;;;5063163;28;20111;-49
2021/07/04 14:39:15;;;;;;;2.78;1.08;;;;;;;;;;5067652;28;20360;-49